MEA212 LFPG-OLBA
Flight info
| Callsign | MEA212 |
|---|---|
| Flight time | N/A |
| Altitude | 39000 |
| Route | LANVI DCT BEGAR DCT TRA DCT GAMSA DCT GEDSO DCT VEKEN DCT NEMEK DCT TUPUS DCT MEDUX UM867 KOGAT DCT DISOR DCT RIKSO UP14 ZAFLE DCT TOMBI DCT ADLAS DCT DESPO M31 KUKLA |
| Aircraft | A332/H-SADE1E2E3GHIJ3J5M1P2RWXY/LB2D1 |
Departure
| Time | 2026-05-05 12:26 |
|---|---|
| Airport | Charles de Gaulle International Airport (LFPG) |
Arrival
| Time | N/A |
|---|---|
| Airport | Beirut Rafic Hariri International Airport (OLBA) |
| Time | Latitude | Longitude | Altitude | Speed | Heading |
|---|---|---|---|---|---|
| 2026-05-05 12:00 | 49.00185 | 2.56044 | 360 ft | 0 kts | 26° |
| 2026-05-05 12:06 | 49.00184 | 2.56044 | 360 ft | 0 kts | 26° |
| 2026-05-05 12:07 | 49.00184 | 2.56043 | 360 ft | 0 kts | 26° |
| 2026-05-05 12:17 | 49.00179 | 2.56039 | 360 ft | 2 kts | 26° |
| 2026-05-05 12:18 | 49.00164 | 2.56028 | 362 ft | 3 kts | 20° |
| 2026-05-05 12:18 | 49.00144 | 2.56018 | 362 ft | 3 kts | 7° |
| 2026-05-05 12:18 | 49.00123 | 2.56015 | 360 ft | 3 kts | 346° |
| 2026-05-05 12:18 | 49.00103 | 2.56025 | 361 ft | 3 kts | 315° |
| 2026-05-05 12:19 | 49.00089 | 2.56049 | 364 ft | 3 kts | 290° |
| 2026-05-05 12:19 | 49.00084 | 2.56072 | 363 ft | 0 kts | 266° |
| 2026-05-05 12:20 | 49.00084 | 2.56073 | 363 ft | 0 kts | 266° |
| 2026-05-05 12:22 | 49.00084 | 2.56067 | 363 ft | 2 kts | 266° |
| 2026-05-05 12:22 | 49.00083 | 2.56038 | 365 ft | 4 kts | 266° |
| 2026-05-05 12:22 | 49.00080 | 2.55984 | 360 ft | 6 kts | 265° |
| 2026-05-05 12:23 | 49.00076 | 2.55906 | 364 ft | 8 kts | 265° |
| 2026-05-05 12:23 | 49.00074 | 2.55805 | 366 ft | 10 kts | 269° |
| 2026-05-05 12:23 | 49.00066 | 2.55688 | 363 ft | 12 kts | 257° |
| 2026-05-05 12:23 | 49.00024 | 2.55568 | 365 ft | 14 kts | 229° |
| 2026-05-05 12:24 | 48.99935 | 2.55556 | 362 ft | 14 kts | 158° |
| 2026-05-05 12:24 | 48.99857 | 2.55658 | 366 ft | 16 kts | 124° |
| 2026-05-05 12:24 | 48.99798 | 2.55787 | 364 ft | 14 kts | 155° |
| 2026-05-05 12:24 | 48.99721 | 2.55810 | 360 ft | 11 kts | 174° |
| 2026-05-05 12:25 | 48.99640 | 2.55821 | 361 ft | 11 kts | 172° |
| 2026-05-05 12:25 | 48.99605 | 2.55910 | 362 ft | 11 kts | 91° |
| 2026-05-05 12:25 | 48.99611 | 2.56035 | 360 ft | 19 kts | 85° |
| 2026-05-05 12:25 | 48.99647 | 2.56690 | 362 ft | 105 kts | 85° |
| 2026-05-05 12:26 | 48.99720 | 2.58166 | 371 ft | 170 kts | 85° |
| 2026-05-05 12:26 | 48.99792 | 2.60022 | 1064 ft | 172 kts | 82° |
| 2026-05-05 12:26 | 48.99909 | 2.61810 | 2126 ft | 166 kts | 80° |
| 2026-05-05 12:26 | 49.00032 | 2.63607 | 2828 ft | 180 kts | 81° |
| 2026-05-05 12:27 | 49.00161 | 2.65607 | 3375 ft | 199 kts | 83° |
| 2026-05-05 12:27 | 49.00276 | 2.67825 | 3887 ft | 220 kts | 84° |
| 2026-05-05 12:27 | 49.00382 | 2.70264 | 4357 ft | 241 kts | 85° |
| 2026-05-05 12:27 | 49.00503 | 2.72871 | 4817 ft | 255 kts | 86° |
| 2026-05-05 12:28 | 49.00623 | 2.75612 | 5685 ft | 256 kts | 85° |
| 2026-05-05 12:28 | 49.00751 | 2.78349 | 6459 ft | 262 kts | 88° |
| 2026-05-05 12:28 | 49.00446 | 2.81057 | 7237 ft | 266 kts | 106° |
| 2026-05-05 12:28 | 48.99873 | 2.83767 | 8023 ft | 270 kts | 106° |
| 2026-05-05 12:29 | 48.99284 | 2.86509 | 8820 ft | 274 kts | 107° |
| 2026-05-05 12:29 | 48.98683 | 2.89277 | 9627 ft | 279 kts | 107° |
| 2026-05-05 12:29 | 48.98070 | 2.92101 | 10275 ft | 285 kts | 107° |
| 2026-05-05 12:29 | 48.97424 | 2.95079 | 10472 ft | 306 kts | 107° |
| 2026-05-05 12:30 | 48.96737 | 2.98251 | 10673 ft | 324 kts | 107° |
| 2026-05-05 12:30 | 48.96027 | 3.01510 | 11217 ft | 329 kts | 107° |
| 2026-05-05 12:30 | 48.95300 | 3.04838 | 11855 ft | 332 kts | 108° |
| 2026-05-05 12:30 | 48.94570 | 3.08181 | 12497 ft | 335 kts | 108° |
| 2026-05-05 12:31 | 48.93832 | 3.11564 | 13089 ft | 338 kts | 108° |
| 2026-05-05 12:31 | 48.93082 | 3.14980 | 13691 ft | 342 kts | 109° |
| 2026-05-05 12:31 | 48.92326 | 3.18418 | 14250 ft | 344 kts | 109° |
| 2026-05-05 12:31 | 48.91574 | 3.21834 | 14789 ft | 347 kts | 109° |
| 2026-05-05 12:32 | 48.90802 | 3.25327 | 15333 ft | 350 kts | 109° |
| 2026-05-05 12:32 | 48.90023 | 3.28851 | 15873 ft | 353 kts | 109° |
| 2026-05-05 12:32 | 48.89239 | 3.32395 | 16406 ft | 355 kts | 109° |
| 2026-05-05 12:32 | 48.88447 | 3.35967 | 16949 ft | 358 kts | 109° |
| 2026-05-05 12:33 | 48.87647 | 3.39571 | 17474 ft | 361 kts | 109° |
| 2026-05-05 12:33 | 48.86839 | 3.43204 | 18029 ft | 364 kts | 109° |
| 2026-05-05 12:33 | 48.86023 | 3.46865 | 18497 ft | 367 kts | 109° |
| 2026-05-05 12:33 | 48.85202 | 3.50545 | 18971 ft | 370 kts | 110° |
| 2026-05-05 12:34 | 48.84371 | 3.54259 | 19451 ft | 372 kts | 110° |
| 2026-05-05 12:34 | 48.83534 | 3.57996 | 19913 ft | 376 kts | 110° |
| 2026-05-05 12:34 | 48.82690 | 3.61761 | 20418 ft | 378 kts | 110° |
| 2026-05-05 12:34 | 48.81837 | 3.65554 | 20901 ft | 382 kts | 110° |
| 2026-05-05 12:35 | 48.80983 | 3.69347 | 21395 ft | 385 kts | 110° |
| 2026-05-05 12:35 | 48.80112 | 3.73209 | 21896 ft | 388 kts | 110° |
| 2026-05-05 12:35 | 48.79233 | 3.77098 | 22386 ft | 391 kts | 110° |
| 2026-05-05 12:35 | 48.78345 | 3.81018 | 22885 ft | 394 kts | 110° |
| 2026-05-05 12:36 | 48.77448 | 3.84967 | 23379 ft | 398 kts | 110° |
| 2026-05-05 12:36 | 48.76543 | 3.88948 | 23803 ft | 401 kts | 110° |
| 2026-05-05 12:36 | 48.75632 | 3.92950 | 24245 ft | 403 kts | 110° |
| 2026-05-05 12:36 | 48.74713 | 3.96981 | 24681 ft | 406 kts | 111° |
| 2026-05-05 12:37 | 48.73787 | 4.01032 | 25103 ft | 408 kts | 111° |
| 2026-05-05 12:37 | 48.72853 | 4.05111 | 25524 ft | 411 kts | 111° |
| 2026-05-05 12:37 | 48.71911 | 4.09216 | 25947 ft | 413 kts | 111° |
| 2026-05-05 12:37 | 48.70965 | 4.13337 | 26454 ft | 416 kts | 111° |
| 2026-05-05 12:38 | 48.70017 | 4.17452 | 26901 ft | 419 kts | 111° |
| 2026-05-05 12:38 | 48.69056 | 4.21630 | 27393 ft | 423 kts | 111° |
| 2026-05-05 12:38 | 48.68079 | 4.25865 | 27842 ft | 426 kts | 111° |
| 2026-05-05 12:38 | 48.67095 | 4.30104 | 28301 ft | 428 kts | 111° |
| 2026-05-05 12:39 | 48.66103 | 4.34363 | 28680 ft | 430 kts | 111° |
| 2026-05-05 12:39 | 48.65113 | 4.38617 | 29242 ft | 428 kts | 111° |
| 2026-05-05 12:39 | 48.64456 | 4.41435 | 29461 ft | 430 kts | 111° |
| 2026-05-05 12:39 | 48.63112 | 4.47189 | 29945 ft | 434 kts | 111° |
| 2026-05-05 12:40 | 48.62446 | 4.50034 | 30168 ft | 435 kts | 111° |
| 2026-05-05 12:40 | 48.61433 | 4.54354 | 30521 ft | 437 kts | 112° |
| 2026-05-05 12:40 | 48.60416 | 4.58688 | 30869 ft | 439 kts | 112° |
| 2026-05-05 12:40 | 48.59390 | 4.63053 | 31205 ft | 441 kts | 112° |
| 2026-05-05 12:41 | 48.58359 | 4.67425 | 31553 ft | 443 kts | 112° |
| 2026-05-05 12:41 | 48.57321 | 4.71820 | 31898 ft | 445 kts | 112° |
| 2026-05-05 12:41 | 48.56278 | 4.76224 | 32258 ft | 447 kts | 112° |
| 2026-05-05 12:41 | 48.55229 | 4.80647 | 32578 ft | 447 kts | 112° |
| 2026-05-05 12:42 | 48.54174 | 4.85087 | 32773 ft | 451 kts | 112° |
| 2026-05-05 12:42 | 48.53111 | 4.89551 | 32992 ft | 452 kts | 112° |
| 2026-05-05 12:42 | 48.52057 | 4.93970 | 33177 ft | 453 kts | 112° |
| 2026-05-05 12:42 | 48.50986 | 4.98451 | 33378 ft | 454 kts | 112° |
| 2026-05-05 12:43 | 48.49912 | 5.02934 | 33599 ft | 454 kts | 112° |
| 2026-05-05 12:43 | 48.48837 | 5.07413 | 33848 ft | 454 kts | 112° |
| 2026-05-05 12:43 | 48.47762 | 5.11879 | 34037 ft | 454 kts | 112° |
| 2026-05-05 12:43 | 48.46680 | 5.16366 | 34227 ft | 455 kts | 112° |
| 2026-05-05 12:44 | 48.45598 | 5.20843 | 34398 ft | 455 kts | 112° |
| 2026-05-05 12:44 | 48.44513 | 5.25324 | 34571 ft | 456 kts | 112° |
| 2026-05-05 12:44 | 48.43426 | 5.29805 | 34726 ft | 456 kts | 112° |
| 2026-05-05 12:44 | 48.42334 | 5.34301 | 34876 ft | 457 kts | 112° |
| 2026-05-05 12:45 | 48.41240 | 5.38794 | 35024 ft | 458 kts | 112° |
| 2026-05-05 12:45 | 48.40139 | 5.43310 | 35189 ft | 458 kts | 112° |
| 2026-05-05 12:45 | 48.39050 | 5.47762 | 35331 ft | 459 kts | 112° |
| 2026-05-05 12:45 | 48.37941 | 5.52287 | 35476 ft | 460 kts | 112° |
| 2026-05-05 12:46 | 48.36833 | 5.56801 | 35625 ft | 460 kts | 113° |
| 2026-05-05 12:46 | 48.35722 | 5.61318 | 35778 ft | 461 kts | 113° |
| 2026-05-05 12:46 | 48.34608 | 5.65842 | 35968 ft | 462 kts | 113° |
| 2026-05-05 12:46 | 48.33489 | 5.70373 | 36123 ft | 463 kts | 113° |
| 2026-05-05 12:47 | 48.32367 | 5.74910 | 36262 ft | 463 kts | 113° |
| 2026-05-05 12:47 | 48.31243 | 5.79451 | 36398 ft | 464 kts | 113° |
| 2026-05-05 12:47 | 48.30157 | 5.84027 | 36545 ft | 465 kts | 111° |
| 2026-05-05 12:47 | 48.29156 | 5.88651 | 36683 ft | 466 kts | 110° |
| 2026-05-05 12:48 | 48.28176 | 5.93301 | 36802 ft | 468 kts | 110° |